Hovedside
METAR-TAF:

METAR-TAF

Lufthavner :

Svalbard lufthavn. Longyear

Longyearbyen, Norge

breddegrad: 78-15N, lengdegrad: 015-28E, høyde over havet: 2 m

Gjeldene værobservasjon

Denne rapporten ble laget for 58 minutter siden, klokken 05:50 UTC
Flau vind
Temperatur -4°C
Luftfuktighet 63%
Trykk 1021 hPa
Sikt 10 km eller mer
Brutte skyer i en høyde av 3500 ft

METAR: ENSB 150550Z 00000KT 9999 BKN035 M04/M10 Q1021 RMK WIND 1400FT 17004KT

Tid: 07:48 (06:48 UTC)

Varsel

Varsel gyldig fra 15. klokken 06 UTC til 16. klokken 06 UTC
Vind 9 kt fra Sør-sørøst
Sikt 10 km eller mer
Få skyer i en høyde av 2500 ft
Brutte skyer i en høyde av 4000 ft
Midlertidig
fra 15. klokken 18 UTC til 16. klokken 06 UTC
Vind 15 kt fra Sør-sørvest med vindkast opp mot 25 kt

TAF: ENSB 1506/1606 15009KT 9999 FEW025 BKN040 TEMPO 1518/1606 21015G25KT

Værobservasjoner og værvarsel for over 4000 flyplasser (METAR- og TAF-rapporter).

Tilgjengelige stasjoner er representert av de røde og gule prikkene på kartet.

Hold musepekeren over prikken for å se navnet på stasjonen.

Klikk så for å se værobservasjoner og -varsler.

For å forandre kartet kan du klikke på den grønne knappen med svart kryss for å zoome inn, på den grønne knappen med strek for å zoome ut, eller på de grønne pilene for å se tilstøtende kart.


METAR-TAF: